Terminal Aerodrome Forecast
Issued by NWS

Home | Current Version | Previous Version | Text Only | Print | Product List | Glossary Off
Versions: 1 2 3 4 5 6 7 8 9 10 11 12 13 14 15 16 17 18

000
FTUS43 KUNR 240700 AAA
TAFGCC
TAF AMD
KGCC 240714Z 2407/2506 31022G33KT P6SM -SHRA BKN040
      TEMPO 2407/2409 5SM SHRA BKN025
     FM240900 29018G28KT P6SM BKN050
     FM241500 29014G22KT P6SM SCT050
     FM250000 35015KT 4SM -RA OVC025=

USA.gov is the U.S. government's official web portal to all federal, state and local government web resources and services.